sensor_id;sensor_type;location;lat;lon;timestamp;temperature;humidity
78289;DHT22;67539;48.752;12.922;2023-02-24T00:00:12;8.20;99.90
78289;DHT22;67539;48.752;12.922;2023-02-24T00:02:59;8.20;99.90
78289;DHT22;67539;48.752;12.922;2023-02-24T00:05:35;8.10;99.90
78289;DHT22;67539;48.752;12.922;2023-02-24T00:08:05;8.10;99.90
78289;DHT22;67539;48.752;12.922;2023-02-24T00:10:33;8.10;99.90
78289;DHT22;67539;48.752;12.922;2023-02-24T00:13:05;8.10;99.90
78289;DHT22;67539;48.752;12.922;2023-02-24T00:15:33;8.10;99.90
78289;DHT22;67539;48.752;12.922;2023-02-24T00:18:01;8.10;99.90
78289;DHT22;67539;48.752;12.922;2023-02-24T00:20:33;8.10;99.90
78289;DHT22;67539;48.752;12.922;2023-02-24T00:23:01;8.10;99.90
78289;DHT22;67539;48.752;12.922;2023-02-24T00:25:29;8.00;99.90
78289;DHT22;67539;48.752;12.922;2023-02-24T00:27:58;8.00;99.90
78289;DHT22;67539;48.752;12.922;2023-02-24T00:30:28;8.00;99.90
78289;DHT22;67539;48.752;12.922;2023-02-24T00:32:59;8.00;99.90
78289;DHT22;67539;48.752;12.922;2023-02-24T00:35:29;8.00;99.90
78289;DHT22;67539;48.752;12.922;2023-02-24T00:37:58;8.00;99.90
78289;DHT22;67539;48.752;12.922;2023-02-24T00:40:27;8.00;99.90
78289;DHT22;67539;48.752;12.922;2023-02-24T00:42:58;8.00;99.90
78289;DHT22;67539;48.752;12.922;2023-02-24T00:45:28;8.00;99.90
78289;DHT22;67539;48.752;12.922;2023-02-24T00:47:59;8.00;99.90
78289;DHT22;67539;48.752;12.922;2023-02-24T00:50:30;8.00;99.90
78289;DHT22;67539;48.752;12.922;2023-02-24T00:52:58;8.00;99.90
78289;DHT22;67539;48.752;12.922;2023-02-24T00:55:27;7.90;99.90
78289;DHT22;67539;48.752;12.922;2023-02-24T00:58:02;7.90;99.90
78289;DHT22;67539;48.752;12.922;2023-02-24T01:00:34;7.90;99.90
78289;DHT22;67539;48.752;12.922;2023-02-24T01:03:04;7.90;99.90
78289;DHT22;67539;48.752;12.922;2023-02-24T01:05:35;7.90;99.90
78289;DHT22;67539;48.752;12.922;2023-02-24T01:08:03;7.90;99.90
78289;DHT22;67539;48.752;12.922;2023-02-24T01:10:31;7.90;99.90
78289;DHT22;67539;48.752;12.922;2023-02-24T01:13:00;7.90;99.90
78289;DHT22;67539;48.752;12.922;2023-02-24T01:15:27;7.90;99.90
78289;DHT22;67539;48.752;12.922;2023-02-24T01:17:56;7.90;99.90
78289;DHT22;67539;48.752;12.922;2023-02-24T01:20:24;7.90;99.90
78289;DHT22;67539;48.752;12.922;2023-02-24T01:22:56;7.80;99.90
78289;DHT22;67539;48.752;12.922;2023-02-24T01:25:24;7.80;99.90
78289;DHT22;67539;48.752;12.922;2023-02-24T01:27:57;7.80;99.90
78289;DHT22;67539;48.752;12.922;2023-02-24T01:30:26;7.70;99.90
78289;DHT22;67539;48.752;12.922;2023-02-24T01:32:57;7.70;99.90
78289;DHT22;67539;48.752;12.922;2023-02-24T01:35:27;7.70;99.90
78289;DHT22;67539;48.752;12.922;2023-02-24T01:37:57;7.60;99.90
78289;DHT22;67539;48.752;12.922;2023-02-24T01:40:27;7.60;99.90
78289;DHT22;67539;48.752;12.922;2023-02-24T01:42:55;7.60;99.90
78289;DHT22;67539;48.752;12.922;2023-02-24T01:45:25;7.60;99.90
78289;DHT22;67539;48.752;12.922;2023-02-24T01:47:59;7.50;99.90
78289;DHT22;67539;48.752;12.922;2023-02-24T01:50:33;7.50;99.90
78289;DHT22;67539;48.752;12.922;2023-02-24T01:53:03;7.50;99.90
78289;DHT22;67539;48.752;12.922;2023-02-24T01:55:33;7.50;99.90
78289;DHT22;67539;48.752;12.922;2023-02-24T01:58:08;7.40;99.90
78289;DHT22;67539;48.752;12.922;2023-02-24T02:00:38;7.40;99.90
78289;DHT22;67539;48.752;12.922;2023-02-24T02:03:23;7.40;99.90
78289;DHT22;67539;48.752;12.922;2023-02-24T02:05:57;7.40;99.90
78289;DHT22;67539;48.752;12.922;2023-02-24T02:08:27;7.40;99.90
78289;DHT22;67539;48.752;12.922;2023-02-24T02:11:00;7.50;99.90
78289;DHT22;67539;48.752;12.922;2023-02-24T02:13:33;7.50;99.90
78289;DHT22;67539;48.752;12.922;2023-02-24T02:19:10;7.60;99.90
78289;DHT22;67539;48.752;12.922;2023-02-24T02:22:06;7.60;99.90
78289;DHT22;67539;48.752;12.922;2023-02-24T02:24:42;7.60;99.90
78289;DHT22;67539;48.752;12.922;2023-02-24T02:27:34;7.60;99.90
78289;DHT22;67539;48.752;12.922;2023-02-24T02:30:46;7.60;99.90
78289;DHT22;67539;48.752;12.922;2023-02-24T02:33:57;7.60;99.90
78289;DHT22;67539;48.752;12.922;2023-02-24T02:36:38;7.60;99.90
78289;DHT22;67539;48.752;12.922;2023-02-24T02:39:16;7.60;99.90
78289;DHT22;67539;48.752;12.922;2023-02-24T02:41:52;7.50;99.90
78289;DHT22;67539;48.752;12.922;2023-02-24T02:44:24;7.60;99.90
78289;DHT22;67539;48.752;12.922;2023-02-24T02:47:03;7.50;99.90
78289;DHT22;67539;48.752;12.922;2023-02-24T02:49:40;7.50;99.90
78289;DHT22;67539;48.752;12.922;2023-02-24T02:52:14;7.60;99.90
78289;DHT22;67539;48.752;12.922;2023-02-24T02:54:46;7.50;99.90
78289;DHT22;67539;48.752;12.922;2023-02-24T02:57:18;7.50;99.90
78289;DHT22;67539;48.752;12.922;2023-02-24T02:59:53;7.50;99.90
78289;DHT22;67539;48.752;12.922;2023-02-24T03:02:26;7.50;99.90
78289;DHT22;67539;48.752;12.922;2023-02-24T03:05:00;7.50;99.90
78289;DHT22;67539;48.752;12.922;2023-02-24T03:07:33;7.40;99.90
78289;DHT22;67539;48.752;12.922;2023-02-24T03:10:08;7.50;99.90
78289;DHT22;67539;48.752;12.922;2023-02-24T03:12:46;7.40;99.90
78289;DHT22;67539;48.752;12.922;2023-02-24T03:15:18;7.40;99.90
78289;DHT22;67539;48.752;12.922;2023-02-24T03:17:51;7.40;99.90
78289;DHT22;67539;48.752;12.922;2023-02-24T03:20:26;7.40;99.90
78289;DHT22;67539;48.752;12.922;2023-02-24T03:23:01;7.30;99.90
78289;DHT22;67539;48.752;12.922;2023-02-24T03:25:36;7.30;99.90
78289;DHT22;67539;48.752;12.922;2023-02-24T03:28:12;7.30;99.90
78289;DHT22;67539;48.752;12.922;2023-02-24T03:30:45;7.20;99.90
78289;DHT22;67539;48.752;12.922;2023-02-24T03:33:20;7.20;99.90
78289;DHT22;67539;48.752;12.922;2023-02-24T03:35:51;7.10;99.90
78289;DHT22;67539;48.752;12.922;2023-02-24T03:38:19;7.10;99.90
78289;DHT22;67539;48.752;12.922;2023-02-24T03:40:51;7.10;99.90
78289;DHT22;67539;48.752;12.922;2023-02-24T03:43:27;7.10;99.90
78289;DHT22;67539;48.752;12.922;2023-02-24T03:45:58;7.10;99.90
78289;DHT22;67539;48.752;12.922;2023-02-24T03:48:28;7.10;99.90
78289;DHT22;67539;48.752;12.922;2023-02-24T03:50:58;7.10;99.90
78289;DHT22;67539;48.752;12.922;2023-02-24T03:53:53;7.10;99.90
78289;DHT22;67539;48.752;12.922;2023-02-24T03:56:28;7.10;99.90
78289;DHT22;67539;48.752;12.922;2023-02-24T03:59:09;7.10;99.90
78289;DHT22;67539;48.752;12.922;2023-02-24T04:01:47;7.10;99.90
78289;DHT22;67539;48.752;12.922;2023-02-24T04:04:31;7.20;99.90
78289;DHT22;67539;48.752;12.922;2023-02-24T04:07:13;7.20;99.90
78289;DHT22;67539;48.752;12.922;2023-02-24T04:09:46;7.20;99.90
78289;DHT22;67539;48.752;12.922;2023-02-24T04:12:22;7.20;99.90
78289;DHT22;67539;48.752;12.922;2023-02-24T04:15:03;7.20;99.90
78289;DHT22;67539;48.752;12.922;2023-02-24T04:17:38;7.20;99.90
78289;DHT22;67539;48.752;12.922;2023-02-24T04:20:10;7.20;99.90
78289;DHT22;67539;48.752;12.922;2023-02-24T04:22:49;7.20;99.90
78289;DHT22;67539;48.752;12.922;2023-02-24T04:25:20;7.20;99.90
78289;DHT22;67539;48.752;12.922;2023-02-24T04:27:53;7.30;99.90
78289;DHT22;67539;48.752;12.922;2023-02-24T04:30:24;7.20;99.90
78289;DHT22;67539;48.752;12.922;2023-02-24T04:32:53;7.30;99.90
78289;DHT22;67539;48.752;12.922;2023-02-24T04:35:25;7.30;99.90
78289;DHT22;67539;48.752;12.922;2023-02-24T04:37:56;7.30;99.90
78289;DHT22;67539;48.752;12.922;2023-02-24T04:40:25;7.40;99.90
78289;DHT22;67539;48.752;12.922;2023-02-24T04:42:53;7.40;99.90
78289;DHT22;67539;48.752;12.922;2023-02-24T04:45:24;7.40;99.90
78289;DHT22;67539;48.752;12.922;2023-02-24T04:47:53;7.40;99.90
78289;DHT22;67539;48.752;12.922;2023-02-24T04:50:30;7.30;99.90
78289;DHT22;67539;48.752;12.922;2023-02-24T04:53:02;7.30;99.90
78289;DHT22;67539;48.752;12.922;2023-02-24T04:55:35;7.30;99.90
78289;DHT22;67539;48.752;12.922;2023-02-24T04:58:06;7.30;99.90
78289;DHT22;67539;48.752;12.922;2023-02-24T05:00:37;7.30;99.90
78289;DHT22;67539;48.752;12.922;2023-02-24T05:03:09;7.30;99.90
78289;DHT22;67539;48.752;12.922;2023-02-24T05:05:38;7.30;99.90
78289;DHT22;67539;48.752;12.922;2023-02-24T05:08:10;7.30;99.90
78289;DHT22;67539;48.752;12.922;2023-02-24T05:10:43;7.30;99.90
78289;DHT22;67539;48.752;12.922;2023-02-24T05:13:12;7.30;99.90
78289;DHT22;67539;48.752;12.922;2023-02-24T05:15:42;7.30;99.90
78289;DHT22;67539;48.752;12.922;2023-02-24T05:18:13;7.30;99.90
78289;DHT22;67539;48.752;12.922;2023-02-24T05:20:44;7.30;99.90
78289;DHT22;67539;48.752;12.922;2023-02-24T05:23:34;7.30;99.90
78289;DHT22;67539;48.752;12.922;2023-02-24T05:26:06;7.30;99.90
78289;DHT22;67539;48.752;12.922;2023-02-24T05:28:36;7.30;99.90
78289;DHT22;67539;48.752;12.922;2023-02-24T05:31:08;7.30;99.90
78289;DHT22;67539;48.752;12.922;2023-02-24T05:33:37;7.40;99.90
78289;DHT22;67539;48.752;12.922;2023-02-24T05:36:08;7.40;99.90
78289;DHT22;67539;48.752;12.922;2023-02-24T05:38:39;7.30;99.90
78289;DHT22;67539;48.752;12.922;2023-02-24T05:41:12;7.30;99.90
78289;DHT22;67539;48.752;12.922;2023-02-24T05:43:43;7.30;99.90
78289;DHT22;67539;48.752;12.922;2023-02-24T05:46:14;7.30;99.90
78289;DHT22;67539;48.752;12.922;2023-02-24T05:48:42;7.30;99.90
78289;DHT22;67539;48.752;12.922;2023-02-24T05:51:10;7.40;99.90
78289;DHT22;67539;48.752;12.922;2023-02-24T05:53:40;7.40;99.90
78289;DHT22;67539;48.752;12.922;2023-02-24T05:56:08;7.30;99.90
78289;DHT22;67539;48.752;12.922;2023-02-24T05:58:37;7.30;99.90
78289;DHT22;67539;48.752;12.922;2023-02-24T06:01:10;7.30;99.90
78289;DHT22;67539;48.752;12.922;2023-02-24T06:03:42;7.40;99.90
78289;DHT22;67539;48.752;12.922;2023-02-24T06:06:14;7.30;99.90
78289;DHT22;67539;48.752;12.922;2023-02-24T06:08:44;7.40;99.90
78289;DHT22;67539;48.752;12.922;2023-02-24T06:11:17;7.30;99.90
78289;DHT22;67539;48.752;12.922;2023-02-24T06:13:46;7.40;99.90
78289;DHT22;67539;48.752;12.922;2023-02-24T06:16:16;7.40;99.90
78289;DHT22;67539;48.752;12.922;2023-02-24T06:18:47;7.40;99.90
78289;DHT22;67539;48.752;12.922;2023-02-24T06:21:15;7.40;99.90
78289;DHT22;67539;48.752;12.922;2023-02-24T06:23:45;7.50;99.90
78289;DHT22;67539;48.752;12.922;2023-02-24T06:26:13;7.50;99.90
78289;DHT22;67539;48.752;12.922;2023-02-24T06:28:46;7.50;99.90
78289;DHT22;67539;48.752;12.922;2023-02-24T06:31:14;7.50;99.90
78289;DHT22;67539;48.752;12.922;2023-02-24T06:33:42;7.40;99.90
78289;DHT22;67539;48.752;12.922;2023-02-24T06:36:11;7.40;99.90
78289;DHT22;67539;48.752;12.922;2023-02-24T06:38:40;7.50;99.90
78289;DHT22;67539;48.752;12.922;2023-02-24T06:41:09;7.50;99.90
78289;DHT22;67539;48.752;12.922;2023-02-24T06:43:39;7.50;99.90
78289;DHT22;67539;48.752;12.922;2023-02-24T06:46:10;7.50;99.90
78289;DHT22;67539;48.752;12.922;2023-02-24T06:48:39;7.50;99.90
78289;DHT22;67539;48.752;12.922;2023-02-24T06:51:10;7.50;99.90
78289;DHT22;67539;48.752;12.922;2023-02-24T06:53:39;7.50;99.90
78289;DHT22;67539;48.752;12.922;2023-02-24T06:56:12;7.50;99.90
78289;DHT22;67539;48.752;12.922;2023-02-24T06:58:42;7.50;99.90
78289;DHT22;67539;48.752;12.922;2023-02-24T07:01:11;7.50;99.90
78289;DHT22;67539;48.752;12.922;2023-02-24T07:03:40;7.50;99.90
78289;DHT22;67539;48.752;12.922;2023-02-24T07:06:13;7.50;99.90
78289;DHT22;67539;48.752;12.922;2023-02-24T07:08:49;7.50;99.90
78289;DHT22;67539;48.752;12.922;2023-02-24T07:11:20;7.50;99.90
78289;DHT22;67539;48.752;12.922;2023-02-24T07:13:49;7.50;99.90
78289;DHT22;67539;48.752;12.922;2023-02-24T07:16:21;7.50;99.90
78289;DHT22;67539;48.752;12.922;2023-02-24T07:18:53;7.50;99.90
78289;DHT22;67539;48.752;12.922;2023-02-24T07:21:24;7.50;99.90
78289;DHT22;67539;48.752;12.922;2023-02-24T07:23:52;7.50;99.90
78289;DHT22;67539;48.752;12.922;2023-02-24T07:26:26;7.40;99.90
78289;DHT22;67539;48.752;12.922;2023-02-24T07:28:56;7.40;99.90
78289;DHT22;67539;48.752;12.922;2023-02-24T07:31:24;7.50;99.90
78289;DHT22;67539;48.752;12.922;2023-02-24T07:33:53;7.60;99.90
78289;DHT22;67539;48.752;12.922;2023-02-24T07:36:23;7.70;99.90
78289;DHT22;67539;48.752;12.922;2023-02-24T07:38:57;7.70;99.90
78289;DHT22;67539;48.752;12.922;2023-02-24T07:41:27;7.80;99.90
78289;DHT22;67539;48.752;12.922;2023-02-24T07:43:57;7.80;99.90
78289;DHT22;67539;48.752;12.922;2023-02-24T07:46:29;7.90;99.90
78289;DHT22;67539;48.752;12.922;2023-02-24T07:48:58;8.00;99.90
78289;DHT22;67539;48.752;12.922;2023-02-24T07:51:27;8.00;99.90
78289;DHT22;67539;48.752;12.922;2023-02-24T07:53:57;8.00;99.90
78289;DHT22;67539;48.752;12.922;2023-02-24T07:56:29;8.00;99.90
78289;DHT22;67539;48.752;12.922;2023-02-24T07:59:01;8.00;99.90
78289;DHT22;67539;48.752;12.922;2023-02-24T08:01:35;8.00;99.90
78289;DHT22;67539;48.752;12.922;2023-02-24T08:04:07;8.00;99.90
78289;DHT22;67539;48.752;12.922;2023-02-24T08:06:40;8.00;99.90
78289;DHT22;67539;48.752;12.922;2023-02-24T08:09:15;8.00;99.90
78289;DHT22;67539;48.752;12.922;2023-02-24T08:11:46;8.00;99.90
78289;DHT22;67539;48.752;12.922;2023-02-24T08:14:19;8.00;99.90
78289;DHT22;67539;48.752;12.922;2023-02-24T08:16:50;8.10;99.90
78289;DHT22;67539;48.752;12.922;2023-02-24T08:19:27;8.10;99.90
78289;DHT22;67539;48.752;12.922;2023-02-24T08:22:00;8.20;99.90
78289;DHT22;67539;48.752;12.922;2023-02-24T08:24:45;8.20;99.90
78289;DHT22;67539;48.752;12.922;2023-02-24T08:27:18;8.20;99.90
78289;DHT22;67539;48.752;12.922;2023-02-24T08:29:48;8.30;99.90
78289;DHT22;67539;48.752;12.922;2023-02-24T08:32:29;8.40;99.90
78289;DHT22;67539;48.752;12.922;2023-02-24T08:35:00;8.40;99.90
78289;DHT22;67539;48.752;12.922;2023-02-24T08:37:31;8.40;99.90
78289;DHT22;67539;48.752;12.922;2023-02-24T08:40:07;8.50;99.90
78289;DHT22;67539;48.752;12.922;2023-02-24T08:42:57;8.50;99.90
78289;DHT22;67539;48.752;12.922;2023-02-24T08:45:26;8.60;99.90
78289;DHT22;67539;48.752;12.922;2023-02-24T08:47:59;8.60;99.90
78289;DHT22;67539;48.752;12.922;2023-02-24T08:50:44;8.60;99.90
78289;DHT22;67539;48.752;12.922;2023-02-24T08:53:12;8.60;99.90
78289;DHT22;67539;48.752;12.922;2023-02-24T08:55:45;8.70;99.90
78289;DHT22;67539;48.752;12.922;2023-02-24T08:58:19;8.80;99.90
78289;DHT22;67539;48.752;12.922;2023-02-24T09:00:53;8.90;99.90
78289;DHT22;67539;48.752;12.922;2023-02-24T09:03:25;8.90;99.90
78289;DHT22;67539;48.752;12.922;2023-02-24T09:06:00;8.90;99.90
78289;DHT22;67539;48.752;12.922;2023-02-24T09:08:31;8.90;99.90
78289;DHT22;67539;48.752;12.922;2023-02-24T09:11:01;8.90;99.90
78289;DHT22;67539;48.752;12.922;2023-02-24T09:13:36;8.80;99.90
78289;DHT22;67539;48.752;12.922;2023-02-24T09:16:09;8.90;99.90
78289;DHT22;67539;48.752;12.922;2023-02-24T09:18:42;8.90;99.90
78289;DHT22;67539;48.752;12.922;2023-02-24T09:21:11;8.90;99.90
78289;DHT22;67539;48.752;12.922;2023-02-24T09:24:02;8.90;99.90
78289;DHT22;67539;48.752;12.922;2023-02-24T09:26:33;8.90;99.90
78289;DHT22;67539;48.752;12.922;2023-02-24T09:29:11;8.90;99.90
78289;DHT22;67539;48.752;12.922;2023-02-24T09:31:59;9.00;99.90
78289;DHT22;67539;48.752;12.922;2023-02-24T09:34:32;9.00;99.90
78289;DHT22;67539;48.752;12.922;2023-02-24T09:37:01;9.10;99.90
78289;DHT22;67539;48.752;12.922;2023-02-24T09:39:31;9.10;99.90
78289;DHT22;67539;48.752;12.922;2023-02-24T09:42:23;9.20;99.90
78289;DHT22;67539;48.752;12.922;2023-02-24T09:45:05;9.20;99.90
78289;DHT22;67539;48.752;12.922;2023-02-24T09:47:40;9.20;99.90
78289;DHT22;67539;48.752;12.922;2023-02-24T09:50:27;9.20;99.90
78289;DHT22;67539;48.752;12.922;2023-02-24T09:53:32;9.10;99.90
78289;DHT22;67539;48.752;12.922;2023-02-24T09:56:15;9.10;99.90
78289;DHT22;67539;48.752;12.922;2023-02-24T09:58:51;9.20;99.90
78289;DHT22;67539;48.752;12.922;2023-02-24T10:01:39;9.20;99.90
78289;DHT22;67539;48.752;12.922;2023-02-24T10:04:35;9.30;99.90
78289;DHT22;67539;48.752;12.922;2023-02-24T10:07:11;9.40;99.90
78289;DHT22;67539;48.752;12.922;2023-02-24T10:09:44;9.50;99.90
78289;DHT22;67539;48.752;12.922;2023-02-24T10:12:16;9.40;99.90
78289;DHT22;67539;48.752;12.922;2023-02-24T10:14:50;9.40;99.90
78289;DHT22;67539;48.752;12.922;2023-02-24T10:17:42;9.40;99.90
78289;DHT22;67539;48.752;12.922;2023-02-24T10:20:16;9.30;99.90
78289;DHT22;67539;48.752;12.922;2023-02-24T10:22:59;9.30;99.90
78289;DHT22;67539;48.752;12.922;2023-02-24T10:25:40;9.40;99.90
78289;DHT22;67539;48.752;12.922;2023-02-24T10:28:18;9.40;99.90
78289;DHT22;67539;48.752;12.922;2023-02-24T10:30:54;9.50;99.90
78289;DHT22;67539;48.752;12.922;2023-02-24T10:33:41;9.50;99.90
78289;DHT22;67539;48.752;12.922;2023-02-24T10:36:13;9.50;99.90
78289;DHT22;67539;48.752;12.922;2023-02-24T10:38:44;9.50;99.90
78289;DHT22;67539;48.752;12.922;2023-02-24T10:41:13;9.50;99.90
78289;DHT22;67539;48.752;12.922;2023-02-24T10:43:52;9.50;99.90
78289;DHT22;67539;48.752;12.922;2023-02-24T10:46:27;9.50;99.90
78289;DHT22;67539;48.752;12.922;2023-02-24T10:49:10;9.60;99.90
78289;DHT22;67539;48.752;12.922;2023-02-24T10:51:47;9.60;99.90
78289;DHT22;67539;48.752;12.922;2023-02-24T10:54:21;9.50;99.90
78289;DHT22;67539;48.752;12.922;2023-02-24T10:57:06;9.50;99.90
78289;DHT22;67539;48.752;12.922;2023-02-24T10:59:51;9.60;99.90
78289;DHT22;67539;48.752;12.922;2023-02-24T11:02:49;9.60;99.90
78289;DHT22;67539;48.752;12.922;2023-02-24T11:05:39;9.60;99.90
78289;DHT22;67539;48.752;12.922;2023-02-24T11:08:35;9.70;99.90
78289;DHT22;67539;48.752;12.922;2023-02-24T11:11:14;9.80;99.90
78289;DHT22;67539;48.752;12.922;2023-02-24T11:13:52;9.90;99.90
78289;DHT22;67539;48.752;12.922;2023-02-24T11:16:49;9.90;99.90
78289;DHT22;67539;48.752;12.922;2023-02-24T11:19:39;9.90;99.90
78289;DHT22;67539;48.752;12.922;2023-02-24T11:22:13;9.90;99.90
78289;DHT22;67539;48.752;12.922;2023-02-24T11:24:43;10.00;99.90
78289;DHT22;67539;48.752;12.922;2023-02-24T11:27:14;10.00;99.90
78289;DHT22;67539;48.752;12.922;2023-02-24T11:29:57;10.00;99.90
78289;DHT22;67539;48.752;12.922;2023-02-24T11:32:42;10.10;99.90
78289;DHT22;67539;48.752;12.922;2023-02-24T11:35:19;10.10;99.90
78289;DHT22;67539;48.752;12.922;2023-02-24T11:37:57;10.10;99.90
78289;DHT22;67539;48.752;12.922;2023-02-24T11:40:31;10.10;99.90
78289;DHT22;67539;48.752;12.922;2023-02-24T11:43:05;10.10;99.90
78289;DHT22;67539;48.752;12.922;2023-02-24T11:45:40;10.00;99.90
78289;DHT22;67539;48.752;12.922;2023-02-24T11:48:12;10.00;99.90
78289;DHT22;67539;48.752;12.922;2023-02-24T11:50:46;10.00;99.90
78289;DHT22;67539;48.752;12.922;2023-02-24T11:53:24;10.00;99.90
78289;DHT22;67539;48.752;12.922;2023-02-24T11:55:58;10.00;99.90
78289;DHT22;67539;48.752;12.922;2023-02-24T11:58:33;10.00;99.90
78289;DHT22;67539;48.752;12.922;2023-02-24T12:01:07;10.00;99.90
78289;DHT22;67539;48.752;12.922;2023-02-24T12:03:41;10.00;99.90
78289;DHT22;67539;48.752;12.922;2023-02-24T12:06:16;10.00;99.90
78289;DHT22;67539;48.752;12.922;2023-02-24T12:08:50;10.20;99.90
78289;DHT22;67539;48.752;12.922;2023-02-24T12:11:30;10.30;99.90
78289;DHT22;67539;48.752;12.922;2023-02-24T12:14:12;10.40;99.90
78289;DHT22;67539;48.752;12.922;2023-02-24T12:16:44;10.50;99.90
78289;DHT22;67539;48.752;12.922;2023-02-24T12:19:17;10.50;99.90
78289;DHT22;67539;48.752;12.922;2023-02-24T12:21:50;10.60;99.90
78289;DHT22;67539;48.752;12.922;2023-02-24T12:24:22;10.70;99.90
78289;DHT22;67539;48.752;12.922;2023-02-24T12:26:59;10.80;99.90
78289;DHT22;67539;48.752;12.922;2023-02-24T12:29:42;10.80;99.90
78289;DHT22;67539;48.752;12.922;2023-02-24T12:32:22;10.80;99.90
78289;DHT22;67539;48.752;12.922;2023-02-24T12:35:04;10.80;99.90
78289;DHT22;67539;48.752;12.922;2023-02-24T12:37:53;10.70;99.90
78289;DHT22;67539;48.752;12.922;2023-02-24T12:40:34;10.70;99.90
78289;DHT22;67539;48.752;12.922;2023-02-24T12:43:16;10.60;99.90
78289;DHT22;67539;48.752;12.922;2023-02-24T12:45:52;10.60;99.90
78289;DHT22;67539;48.752;12.922;2023-02-24T12:48:35;10.60;99.90
78289;DHT22;67539;48.752;12.922;2023-02-24T12:51:16;10.60;99.90
78289;DHT22;67539;48.752;12.922;2023-02-24T12:53:56;10.60;99.90
78289;DHT22;67539;48.752;12.922;2023-02-24T12:56:31;10.70;99.90
78289;DHT22;67539;48.752;12.922;2023-02-24T12:59:05;10.70;99.90
78289;DHT22;67539;48.752;12.922;2023-02-24T13:01:46;10.70;99.90
78289;DHT22;67539;48.752;12.922;2023-02-24T13:04:32;10.80;99.90
78289;DHT22;67539;48.752;12.922;2023-02-24T13:07:08;10.80;99.90
78289;DHT22;67539;48.752;12.922;2023-02-24T13:09:44;10.70;99.90
78289;DHT22;67539;48.752;12.922;2023-02-24T13:12:22;10.60;99.90
78289;DHT22;67539;48.752;12.922;2023-02-24T13:14:55;10.60;99.90
78289;DHT22;67539;48.752;12.922;2023-02-24T13:17:24;10.60;99.90
78289;DHT22;67539;48.752;12.922;2023-02-24T13:19:54;10.60;99.90
78289;DHT22;67539;48.752;12.922;2023-02-24T13:22:26;10.60;99.90
78289;DHT22;67539;48.752;12.922;2023-02-24T13:24:58;10.60;99.90
78289;DHT22;67539;48.752;12.922;2023-02-24T13:27:29;10.60;99.90
78289;DHT22;67539;48.752;12.922;2023-02-24T13:30:03;10.50;99.90
78289;DHT22;67539;48.752;12.922;2023-02-24T13:32:32;10.50;99.90
78289;DHT22;67539;48.752;12.922;2023-02-24T13:35:27;10.40;99.90
78289;DHT22;67539;48.752;12.922;2023-02-24T13:37:54;10.40;99.90
78289;DHT22;67539;48.752;12.922;2023-02-24T13:40:23;10.40;99.90
78289;DHT22;67539;48.752;12.922;2023-02-24T13:42:59;10.50;99.90
78289;DHT22;67539;48.752;12.922;2023-02-24T13:45:28;10.50;99.90
78289;DHT22;67539;48.752;12.922;2023-02-24T13:48:18;10.40;99.90
78289;DHT22;67539;48.752;12.922;2023-02-24T13:51:01;10.40;99.90
78289;DHT22;67539;48.752;12.922;2023-02-24T13:53:45;10.50;99.90
78289;DHT22;67539;48.752;12.922;2023-02-24T13:56:26;10.40;99.90
78289;DHT22;67539;48.752;12.922;2023-02-24T14:01:57;10.40;99.90
78289;DHT22;67539;48.752;12.922;2023-02-24T14:04:27;10.50;99.90
78289;DHT22;67539;48.752;12.922;2023-02-24T14:06:59;10.50;99.90
78289;DHT22;67539;48.752;12.922;2023-02-24T14:09:33;10.50;99.90
78289;DHT22;67539;48.752;12.922;2023-02-24T14:12:07;10.50;99.90
78289;DHT22;67539;48.752;12.922;2023-02-24T14:14:41;10.40;99.90
78289;DHT22;67539;48.752;12.922;2023-02-24T14:17:20;10.50;99.90
78289;DHT22;67539;48.752;12.922;2023-02-24T14:19:50;10.50;99.90
78289;DHT22;67539;48.752;12.922;2023-02-24T14:22:19;10.50;99.90
78289;DHT22;67539;48.752;12.922;2023-02-24T14:25:00;10.50;99.90
78289;DHT22;67539;48.752;12.922;2023-02-24T14:27:28;10.50;99.90
78289;DHT22;67539;48.752;12.922;2023-02-24T14:29:56;10.50;99.90
78289;DHT22;67539;48.752;12.922;2023-02-24T14:32:26;10.50;99.90
78289;DHT22;67539;48.752;12.922;2023-02-24T14:34:55;10.50;99.90
78289;DHT22;67539;48.752;12.922;2023-02-24T14:37:25;10.50;99.90
78289;DHT22;67539;48.752;12.922;2023-02-24T14:39:57;10.50;99.90
78289;DHT22;67539;48.752;12.922;2023-02-24T14:42:26;10.60;99.90
78289;DHT22;67539;48.752;12.922;2023-02-24T14:44:57;10.60;99.90
78289;DHT22;67539;48.752;12.922;2023-02-24T14:47:27;10.50;99.90
78289;DHT22;67539;48.752;12.922;2023-02-24T14:49:57;10.50;99.90
78289;DHT22;67539;48.752;12.922;2023-02-24T14:52:32;10.40;99.90
78289;DHT22;67539;48.752;12.922;2023-02-24T14:55:06;10.40;99.90
78289;DHT22;67539;48.752;12.922;2023-02-24T14:57:38;10.30;99.90
78289;DHT22;67539;48.752;12.922;2023-02-24T15:00:14;10.30;99.90
78289;DHT22;67539;48.752;12.922;2023-02-24T15:02:53;10.40;99.90
78289;DHT22;67539;48.752;12.922;2023-02-24T15:05:23;10.50;99.90
78289;DHT22;67539;48.752;12.922;2023-02-24T15:07:51;10.50;99.90
78289;DHT22;67539;48.752;12.922;2023-02-24T15:10:23;10.50;99.90
78289;DHT22;67539;48.752;12.922;2023-02-24T15:12:55;10.50;99.90
78289;DHT22;67539;48.752;12.922;2023-02-24T15:15:29;10.60;99.90
78289;DHT22;67539;48.752;12.922;2023-02-24T15:18:02;10.60;99.90
78289;DHT22;67539;48.752;12.922;2023-02-24T15:20:37;10.60;99.90
78289;DHT22;67539;48.752;12.922;2023-02-24T15:23:18;10.70;99.90
78289;DHT22;67539;48.752;12.922;2023-02-24T15:25:48;10.70;99.90
78289;DHT22;67539;48.752;12.922;2023-02-24T15:28:22;10.70;99.90
78289;DHT22;67539;48.752;12.922;2023-02-24T15:30:59;10.70;99.90
78289;DHT22;67539;48.752;12.922;2023-02-24T15:33:34;10.70;99.90
78289;DHT22;67539;48.752;12.922;2023-02-24T15:36:10;10.60;99.90
78289;DHT22;67539;48.752;12.922;2023-02-24T15:38:41;10.60;99.90
78289;DHT22;67539;48.752;12.922;2023-02-24T15:41:12;10.60;99.90
78289;DHT22;67539;48.752;12.922;2023-02-24T15:43:45;10.60;99.90
78289;DHT22;67539;48.752;12.922;2023-02-24T15:46:22;10.60;99.90
78289;DHT22;67539;48.752;12.922;2023-02-24T15:48:53;10.50;99.90
78289;DHT22;67539;48.752;12.922;2023-02-24T15:51:39;10.40;99.90
78289;DHT22;67539;48.752;12.922;2023-02-24T15:54:10;10.50;99.90
78289;DHT22;67539;48.752;12.922;2023-02-24T15:56:41;10.40;99.90
78289;DHT22;67539;48.752;12.922;2023-02-24T15:59:13;10.40;99.90
78289;DHT22;67539;48.752;12.922;2023-02-24T16:01:41;10.40;99.90
78289;DHT22;67539;48.752;12.922;2023-02-24T16:04:09;10.30;99.90
78289;DHT22;67539;48.752;12.922;2023-02-24T16:06:39;10.30;99.90
78289;DHT22;67539;48.752;12.922;2023-02-24T16:09:11;10.20;99.90
78289;DHT22;67539;48.752;12.922;2023-02-24T16:11:44;10.20;99.90
78289;DHT22;67539;48.752;12.922;2023-02-24T16:14:15;10.10;99.90
78289;DHT22;67539;48.752;12.922;2023-02-24T16:16:44;10.10;99.90